Time,TemperatureF,DewpointF,PressureIn,WindDirection,WindDirectionDegrees,WindSpeedMPH,WindSpeedGustMPH,Humidity,HourlyPrecipIn,Conditions,Clouds,dailyrainin,SolarRadiationWatts/m^2,SoftwareType,DateUTC
2013-10-03 00:07:00,66.4,64.0,29.92,WSW,245,0.0,0.0,92,0.00,,,0.00,0,weatherlink.com 1.10,2013-10-03 04:07:00,
2013-10-03 00:22:00,66.1,64.0,29.92,WSW,245,0.0,0.0,93,0.00,,,0.00,0,weatherlink.com 1.10,2013-10-03 04:22:00,
2013-10-03 00:37:00,65.9,64.0,29.92,WSW,245,0.0,0.0,93,0.00,,,0.00,0,weatherlink.com 1.10,2013-10-03 04:37:00,
2013-10-03 00:52:00,65.8,64.0,29.91,WSW,244,0.0,0.0,94,0.00,,,0.00,0,weatherlink.com 1.10,2013-10-03 04:52:00,
2013-10-03 01:07:00,65.7,64.0,29.91,WSW,244,0.0,0.0,94,0.00,,,0.00,0,weatherlink.com 1.10,2013-10-03 05:07:00,
2013-10-03 01:22:00,65.3,64.0,29.91,WSW,245,0.0,0.0,94,0.00,,,0.00,0,weatherlink.com 1.10,2013-10-03 05:22:00,
2013-10-03 01:37:00,65.0,63.0,29.91,WSW,245,0.0,0.0,94,0.00,,,0.00,0,weatherlink.com 1.10,2013-10-03 05:37:00,
2013-10-03 01:52:00,65.1,64.0,29.90,WSW,245,0.0,2.0,95,0.00,,,0.00,0,weatherlink.com 1.10,2013-10-03 05:52:00,
2013-10-03 02:07:00,65.4,64.0,29.90,WSW,245,0.0,1.0,95,0.00,,,0.00,0,weatherlink.com 1.10,2013-10-03 06:07:00,
2013-10-03 02:22:00,65.3,64.0,29.89,WSW,245,0.0,0.0,95,0.00,,,0.00,0,weatherlink.com 1.10,2013-10-03 06:22:00,
2013-10-03 02:37:00,65.0,64.0,29.89,WSW,244,0.0,0.0,95,0.00,,,0.00,0,weatherlink.com 1.10,2013-10-03 06:37:00,
2013-10-03 02:52:00,64.8,63.0,29.89,WSW,244,0.0,0.0,95,0.00,,,0.00,0,weatherlink.com 1.10,2013-10-03 06:52:00,
2013-10-03 03:07:00,64.6,63.0,29.89,WSW,245,0.0,0.0,95,0.00,,,0.00,0,weatherlink.com 1.10,2013-10-03 07:07:00,
2013-10-03 03:22:00,64.2,63.0,29.89,WSW,245,0.0,0.0,95,0.00,,,0.00,0,weatherlink.com 1.10,2013-10-03 07:22:00,
2013-10-03 03:38:00,63.8,62.0,29.89,WSW,244,0.0,0.0,95,0.00,,,0.00,0,weatherlink.com 1.10,2013-10-03 07:38:00,
2013-10-03 03:52:00,63.8,63.0,29.89,WSW,245,0.0,0.0,96,0.00,,,0.00,0,weatherlink.com 1.10,2013-10-03 07:52:00,
2013-10-03 04:07:00,64.1,63.0,29.89,WSW,245,0.0,1.0,96,0.00,,,0.00,0,weatherlink.com 1.10,2013-10-03 08:07:00,
2013-10-03 04:22:00,64.5,63.0,29.89,WSW,245,0.0,1.0,96,0.00,,,0.00,0,weatherlink.com 1.10,2013-10-03 08:22:00,
2013-10-03 04:37:00,64.7,64.0,29.90,WSW,245,0.0,1.0,96,0.00,,,0.00,0,weatherlink.com 1.10,2013-10-03 08:37:00,
2013-10-03 04:52:00,64.8,64.0,29.90,WSW,244,0.0,0.0,96,0.00,,,0.00,0,weatherlink.com 1.10,2013-10-03 08:52:00,
2013-10-03 05:07:00,65.1,64.0,29.89,WSW,245,0.0,3.0,97,0.00,,,0.00,0,weatherlink.com 1.10,2013-10-03 09:07:00,
2013-10-03 05:22:00,65.5,64.0,29.89,WSW,245,0.0,4.0,96,0.00,,,0.00,0,weatherlink.com 1.10,2013-10-03 09:22:00,
2013-10-03 05:37:00,65.5,64.0,29.88,WSW,245,0.0,2.0,96,0.00,,,0.00,0,weatherlink.com 1.10,2013-10-03 09:37:00,
2013-10-03 05:52:00,65.4,64.0,29.88,WSW,244,0.0,3.0,96,0.00,,,0.00,0,weatherlink.com 1.10,2013-10-03 09:52:00,
2013-10-03 06:07:00,65.3,64.0,29.89,WSW,245,4.0,5.0,96,0.00,,,0.00,0,weatherlink.com 1.10,2013-10-03 10:07:00,
2013-10-03 06:22:00,65.5,64.0,29.89,WSW,239,0.0,4.0,96,0.00,,,0.00,0,weatherlink.com 1.10,2013-10-03 10:22:00,
2013-10-03 06:37:00,65.6,65.0,29.89,WSW,239,0.0,5.0,96,0.00,,,0.00,0,weatherlink.com 1.10,2013-10-03 10:37:00,
2013-10-03 06:52:00,65.7,65.0,29.89,WSW,239,1.0,5.0,96,0.00,,,0.00,0,weatherlink.com 1.10,2013-10-03 10:52:00,
2013-10-03 07:07:00,65.8,65.0,29.88,SW,226,2.0,4.0,97,0.00,,,0.00,0,weatherlink.com 1.10,2013-10-03 11:07:00,
2013-10-03 07:22:00,66.0,65.0,29.89,SW,226,3.0,4.0,97,0.00,,,0.00,0,weatherlink.com 1.10,2013-10-03 11:22:00,
2013-10-03 07:37:00,66.1,65.0,29.89,SW,226,2.0,3.0,97,0.00,,,0.00,0,weatherlink.com 1.10,2013-10-03 11:37:00,
2013-10-03 07:52:00,66.2,65.0,29.88,SW,226,1.0,5.0,97,0.00,,,0.00,0,weatherlink.com 1.10,2013-10-03 11:52:00,
2013-10-03 08:07:00,66.3,66.0,29.89,SW,226,0.0,6.0,97,0.00,,,0.00,5,weatherlink.com 1.10,2013-10-03 12:07:00,
2013-10-03 08:22:00,66.4,66.0,29.89,SSW,210,8.0,8.0,97,0.00,,,0.00,9,weatherlink.com 1.10,2013-10-03 12:22:00,
2013-10-03 08:37:00,66.5,66.0,29.90,SSW,202,1.0,7.0,97,0.00,,,0.00,12,weatherlink.com 1.10,2013-10-03 12:37:00,
2013-10-03 08:52:00,66.5,66.0,29.90,SSW,201,3.0,7.0,97,0.00,,,0.00,25,weatherlink.com 1.10,2013-10-03 12:52:00,
2013-10-03 09:08:00,66.6,66.0,29.90,SSW,199,0.0,7.0,97,0.00,,,0.00,28,weatherlink.com 1.10,2013-10-03 13:08:00,
2013-10-03 09:23:00,66.6,66.0,29.90,South,183,3.0,7.0,97,0.00,,,0.00,54,weatherlink.com 1.10,2013-10-03 13:23:00,
2013-10-03 09:38:00,66.6,66.0,29.89,South,183,1.0,5.0,97,0.00,,,0.00,65,weatherlink.com 1.10,2013-10-03 13:38:00,
2013-10-03 09:53:00,66.7,66.0,29.89,South,182,2.0,7.0,97,0.00,,,0.00,42,weatherlink.com 1.10,2013-10-03 13:53:00,
2013-10-03 10:08:00,66.7,66.0,29.90,South,180,3.0,7.0,96,0.00,,,0.00,16,weatherlink.com 1.10,2013-10-03 14:08:00,
2013-10-03 10:23:00,66.7,66.0,29.90,SSE,163,1.0,7.0,97,0.00,,,0.00,12,weatherlink.com 1.10,2013-10-03 14:23:00,
2013-10-03 10:38:00,66.8,66.0,29.90,SSW,212,2.0,9.0,97,0.21,,,0.21,25,weatherlink.com 1.10,2013-10-03 14:38:00,
2013-10-03 10:53:00,66.8,66.0,29.90,SSW,200,2.0,7.0,97,0.50,,,0.50,35,weatherlink.com 1.10,2013-10-03 14:53:00,
2013-10-03 11:08:00,66.9,66.0,29.90,SSW,200,1.0,5.0,97,0.54,,,0.54,16,weatherlink.com 1.10,2013-10-03 15:08:00,
2013-10-03 11:23:00,67.0,66.0,29.90,SSW,199,4.0,6.0,97,0.57,,,0.58,37,weatherlink.com 1.10,2013-10-03 15:23:00,
2013-10-03 11:38:00,67.2,67.0,29.89,South,189,1.0,6.0,98,0.36,,,0.59,105,weatherlink.com 1.10,2013-10-03 15:38:00,
2013-10-03 11:53:00,67.6,67.0,29.90,SSW,197,5.0,6.0,98,0.06,,,0.59,125,weatherlink.com 1.10,2013-10-03 15:53:00,
2013-10-03 12:08:00,68.0,68.0,29.89,SSW,211,1.0,9.0,98,0.05,,,0.59,197,weatherlink.com 1.10,2013-10-03 16:08:00,
2013-10-03 12:23:00,68.8,68.0,29.89,SSW,198,3.0,9.0,98,0.01,,,0.59,195,weatherlink.com 1.10,2013-10-03 16:23:00,
2013-10-03 12:38:00,69.0,68.0,29.89,SW,228,0.0,9.0,97,0.00,,,0.59,176,weatherlink.com 1.10,2013-10-03 16:38:00,
2013-10-03 12:53:00,69.5,68.0,29.89,SW,226,5.0,6.0,96,0.00,,,0.59,91,weatherlink.com 1.10,2013-10-03 16:53:00,
2013-10-03 13:08:00,69.8,68.0,29.89,SSW,210,8.0,10.0,95,0.00,,,0.59,128,weatherlink.com 1.10,2013-10-03 17:08:00,
2013-10-03 13:23:00,70.1,68.0,29.89,SW,234,6.0,10.0,92,0.00,,,0.59,91,weatherlink.com 1.10,2013-10-03 17:23:00,
2013-10-03 13:38:00,70.3,68.0,29.89,WSW,237,0.0,8.0,92,0.00,,,0.59,65,weatherlink.com 1.10,2013-10-03 17:38:00,
2013-10-03 13:53:00,70.5,68.0,29.89,WSW,237,0.0,6.0,92,0.00,,,0.59,88,weatherlink.com 1.10,2013-10-03 17:53:00,
2013-10-03 14:08:00,70.6,68.0,29.88,WSW,237,2.0,5.0,92,0.00,,,0.59,195,weatherlink.com 1.10,2013-10-03 18:08:00,
2013-10-03 14:23:00,71.0,68.0,29.87,WSW,237,1.0,5.0,91,0.00,,,0.59,149,weatherlink.com 1.10,2013-10-03 18:23:00,
2013-10-03 14:53:00,71.1,68.0,29.86,SW,227,5.0,10.0,90,0.00,,,0.59,221,weatherlink.com 1.10,2013-10-03 18:53:00,
2013-10-03 15:08:00,71.7,68.0,29.85,South,177,6.0,10.0,88,0.00,,,0.59,768,weatherlink.com 1.10,2013-10-03 19:08:00,
2013-10-03 15:23:00,72.6,68.0,29.85,SSW,206,4.0,12.0,86,0.00,,,0.59,403,weatherlink.com 1.10,2013-10-03 19:23:00,
2013-10-03 15:38:00,72.9,68.0,29.84,SW,219,3.0,13.0,85,0.00,,,0.59,255,weatherlink.com 1.10,2013-10-03 19:38:00,
2013-10-03 15:53:00,73.6,68.0,29.84,South,185,8.0,9.0,83,0.00,,,0.59,399,weatherlink.com 1.10,2013-10-03 19:53:00,
2013-10-03 16:08:00,74.2,68.0,29.84,SSW,200,7.0,13.0,80,0.00,,,0.59,202,weatherlink.com 1.10,2013-10-03 20:08:00,
2013-10-03 16:23:00,75.3,68.0,29.84,WSW,254,4.0,13.0,77,0.00,,,0.59,174,weatherlink.com 1.10,2013-10-03 20:23:00,
2013-10-03 16:38:00,75.9,68.0,29.83,SW,235,1.0,10.0,77,0.00,,,0.59,229,weatherlink.com 1.10,2013-10-03 20:38:00,
2013-10-03 17:09:00,75.7,68.0,29.81,SW,219,6.0,10.0,77,0.00,,,0.59,385,weatherlink.com 1.10,2013-10-03 21:09:00,
2013-10-03 17:24:00,76.4,69.0,29.80,SW,215,5.0,10.0,77,0.00,,,0.59,336,weatherlink.com 1.10,2013-10-03 21:24:00,
2013-10-03 17:39:00,76.9,69.0,29.80,SSW,212,1.0,8.0,76,0.00,,,0.59,283,weatherlink.com 1.10,2013-10-03 21:39:00,
2013-10-03 17:54:00,77.2,68.0,29.80,SSW,200,4.0,9.0,74,0.00,,,0.59,236,weatherlink.com 1.10,2013-10-03 21:54:00,
2013-10-03 18:09:00,77.2,69.0,29.79,South,181,3.0,7.0,75,0.00,,,0.59,179,weatherlink.com 1.10,2013-10-03 22:09:00,
2013-10-03 18:24:00,76.7,68.0,29.79,SSW,208,6.0,8.0,74,0.00,,,0.59,19,weatherlink.com 1.10,2013-10-03 22:24:00,
2013-10-03 18:39:00,76.0,68.0,29.79,South,186,8.0,8.0,75,0.00,,,0.59,12,weatherlink.com 1.10,2013-10-03 22:39:00,
2013-10-03 18:54:00,75.4,67.0,29.80,South,184,0.0,9.0,76,0.00,,,0.59,12,weatherlink.com 1.10,2013-10-03 22:54:00,
2013-10-03 19:09:00,74.8,67.0,29.81,South,185,3.0,6.0,77,0.00,,,0.59,7,weatherlink.com 1.10,2013-10-03 23:09:00,
2013-10-03 19:24:00,74.6,67.0,29.81,South,186,1.0,5.0,78,0.00,,,0.59,0,weatherlink.com 1.10,2013-10-03 23:24:00,
2013-10-03 19:39:00,74.3,67.0,29.82,South,186,0.0,4.0,78,0.00,,,0.59,0,weatherlink.com 1.10,2013-10-03 23:39:00,
2013-10-03 19:54:00,73.8,67.0,29.83,South,186,0.0,2.0,79,0.00,,,0.59,0,weatherlink.com 1.10,2013-10-03 23:54:00,
2013-10-03 20:09:00,73.0,63.0,29.85,NW,307,6.0,18.0,71,0.00,,,0.59,0,weatherlink.com 1.10,2013-10-04 00:09:00,
2013-10-03 20:24:00,69.5,64.0,29.87,WNW,289,7.0,22.0,82,0.15,,,0.74,0,weatherlink.com 1.10,2013-10-04 00:24:00,
2013-10-03 20:39:00,65.2,62.0,29.85,South,184,3.0,5.0,90,0.32,,,0.91,0,weatherlink.com 1.10,2013-10-04 00:39:00,
2013-10-03 20:54:00,64.8,63.0,29.86,South,184,1.0,5.0,92,0.34,,,0.93,0,weatherlink.com 1.10,2013-10-04 00:54:00,
2013-10-03 21:09:00,64.5,62.0,29.85,SSE,165,4.0,5.0,92,0.35,,,0.94,0,weatherlink.com 1.10,2013-10-04 01:09:00,
2013-10-03 21:24:00,64.4,62.0,29.85,SSE,162,5.0,5.0,93,0.15,,,0.94,0,weatherlink.com 1.10,2013-10-04 01:24:00,
2013-10-03 21:39:00,64.7,63.0,29.85,SE,132,3.0,7.0,94,0.03,,,0.94,0,weatherlink.com 1.10,2013-10-04 01:39:00,
2013-10-03 21:54:00,64.9,63.0,29.85,SE,132,1.0,4.0,94,0.01,,,0.94,0,weatherlink.com 1.10,2013-10-04 01:54:00,
2013-10-03 22:09:00,65.0,63.0,29.86,SE,132,0.0,3.0,94,0.00,,,0.94,0,weatherlink.com 1.10,2013-10-04 02:09:00,
2013-10-03 22:24:00,65.0,63.0,29.86,SE,131,0.0,6.0,94,0.00,,,0.94,0,weatherlink.com 1.10,2013-10-04 02:24:00,
2013-10-03 22:39:00,65.0,63.0,29.86,SE,131,0.0,1.0,94,0.00,,,0.94,0,weatherlink.com 1.10,2013-10-04 02:39:00,
2013-10-03 22:54:00,64.9,64.0,29.85,SE,131,0.0,4.0,95,0.00,,,0.94,0,weatherlink.com 1.10,2013-10-04 02:54:00,
2013-10-03 23:09:00,65.1,63.0,29.86,SE,131,0.0,4.0,94,0.00,,,0.94,0,weatherlink.com 1.10,2013-10-04 03:09:00,
2013-10-03 23:24:00,65.2,64.0,29.86,SE,131,0.0,4.0,94,0.00,,,0.94,0,weatherlink.com 1.10,2013-10-04 03:24:00,
2013-10-03 23:39:00,65.4,63.0,29.86,SE,131,0.0,1.0,93,0.00,,,0.94,0,weatherlink.com 1.10,2013-10-04 03:39:00,
2013-10-03 23:54:00,65.5,64.0,29.86,SE,131,0.0,4.0,93,0.00,,,0.94,0,weatherlink.com 1.10,2013-10-04 03:54:00,